Time,TemperatureF,DewpointF,PressureIn,WindDirection,WindDirectionDegrees,WindSpeedMPH,WindSpeedGustMPH,Humidity,HourlyPrecipIn,Conditions,Clouds,dailyrainin,SolarRadiationWatts/m^2,SoftwareType,DateUTC
2013-12-11 00:02:00,0.0,-7.0,-100.00,NW,311,14.0,20.0,71,0.00,,,0.00,0.000000,,2013-12-11 06:02:00,
2013-12-11 00:11:00,-2.0,-10.0,-100.00,NW,312,13.0,20.0,69,0.00,,,0.00,0.000000,,2013-12-11 06:11:00,
2013-12-11 00:42:00,-2.0,-10.0,-100.00,NW,312,13.0,20.0,69,0.00,,,0.00,0.000000,,2013-12-11 06:42:00,
2013-12-11 00:53:00,-2.0,-10.0,-100.00,NW,312,13.0,20.0,69,0.00,,,0.00,0.000000,,2013-12-11 06:53:00,
2013-12-11 01:02:00,-2.0,-10.0,-100.00,NW,312,13.0,20.0,69,0.00,,,0.00,0.000000,,2013-12-11 07:02:00,
2013-12-11 01:11:00,-5.0,-14.0,-100.00,NW,319,12.0,21.0,64,0.00,,,0.00,0.000000,,2013-12-11 07:11:00,
2013-12-11 01:43:00,-5.0,-14.0,-100.00,NW,319,12.0,21.0,64,0.00,,,0.00,0.000000,,2013-12-11 07:43:00,
2013-12-11 01:52:00,-5.0,-14.0,-100.00,NW,319,12.0,21.0,64,0.00,,,0.00,0.000000,,2013-12-11 07:52:00,
2013-12-11 02:02:00,-5.0,-14.0,-100.00,NW,319,12.0,21.0,64,0.00,,,0.00,0.000000,,2013-12-11 08:02:00,
2013-12-11 02:11:00,-8.0,-17.0,-100.00,NW,314,10.0,17.0,65,0.00,,,0.00,0.000000,,2013-12-11 08:11:00,
2013-12-11 02:42:00,-8.0,-17.0,-100.00,NW,314,10.0,17.0,65,0.00,,,0.00,0.000000,,2013-12-11 08:42:00,
2013-12-11 02:52:00,-8.0,-17.0,-100.00,NW,314,10.0,17.0,65,0.00,,,0.00,0.000000,,2013-12-11 08:52:00,
2013-12-11 03:02:00,-8.0,-17.0,-100.00,NW,314,10.0,17.0,65,0.00,,,0.00,0.000000,,2013-12-11 09:02:00,
2013-12-11 03:11:00,-8.0,-16.0,-100.00,WNW,301,12.0,16.0,67,0.00,,,0.00,0.000000,,2013-12-11 09:11:00,
2013-12-11 03:43:00,-8.0,-16.0,-100.00,WNW,301,12.0,16.0,67,0.00,,,0.00,0.000000,,2013-12-11 09:43:00,
2013-12-11 03:54:00,-8.0,-16.0,-100.00,WNW,301,12.0,16.0,67,0.00,,,0.00,0.000000,,2013-12-11 09:54:00,
2013-12-11 04:03:00,-8.0,-16.0,-100.00,WNW,301,12.0,16.0,67,0.00,,,0.00,0.000000,,2013-12-11 10:03:00,
2013-12-11 04:11:00,-8.0,-16.0,-100.00,WNW,291,11.0,16.0,67,0.00,,,0.00,0.000000,,2013-12-11 10:11:00,
2013-12-11 04:43:00,-8.0,-16.0,-100.00,WNW,291,11.0,16.0,67,0.00,,,0.00,0.000000,,2013-12-11 10:43:00,
2013-12-11 04:53:00,-8.0,-16.0,-100.00,WNW,291,11.0,16.0,67,0.00,,,0.00,0.000000,,2013-12-11 10:53:00,
2013-12-11 05:03:00,-8.0,-16.0,-100.00,WNW,291,11.0,16.0,67,0.00,,,0.00,0.000000,,2013-12-11 11:03:00,
2013-12-11 05:11:00,-9.0,-16.0,-100.00,WNW,286,13.0,17.0,72,0.00,,,0.00,0.000000,,2013-12-11 11:11:00,
2013-12-11 05:42:00,-9.0,-16.0,-100.00,WNW,286,13.0,17.0,72,0.00,,,0.00,0.000000,,2013-12-11 11:42:00,
2013-12-11 05:53:00,-9.0,-16.0,-100.00,WNW,286,13.0,17.0,72,0.00,,,0.00,0.000000,,2013-12-11 11:53:00,
2013-12-11 06:02:00,-9.0,-16.0,-100.00,WNW,286,13.0,17.0,72,0.00,,,0.00,0.000000,,2013-12-11 12:02:00,
2013-12-11 06:11:00,-11.0,-18.0,-100.00,WNW,295,10.0,15.0,71,0.00,,,-99.99,0.000000,,2013-12-11 12:11:00,
2013-12-11 06:42:00,-11.0,-18.0,-100.00,WNW,295,10.0,15.0,71,0.00,,,-99.99,0.000000,,2013-12-11 12:42:00,
2013-12-11 06:52:00,-11.0,-18.0,-100.00,WNW,295,10.0,15.0,71,0.00,,,-99.99,0.000000,,2013-12-11 12:52:00,
2013-12-11 07:02:00,-11.0,-18.0,-100.00,WNW,295,10.0,15.0,71,0.00,,,-99.99,0.000000,,2013-12-11 13:02:00,
2013-12-11 07:11:00,-12.0,-19.0,-100.00,WNW,295,7.0,15.0,71,0.00,,,0.00,0.000000,,2013-12-11 13:11:00,
2013-12-11 07:42:00,-12.0,-19.0,-100.00,WNW,295,7.0,15.0,71,0.00,,,0.00,0.000000,,2013-12-11 13:42:00,
2013-12-11 07:52:00,-12.0,-19.0,-100.00,WNW,295,7.0,15.0,71,0.00,,,0.00,0.000000,,2013-12-11 13:52:00,
2013-12-11 08:02:00,-12.0,-19.0,-100.00,WNW,295,7.0,15.0,71,0.00,,,0.00,0.000000,,2013-12-11 14:02:00,
2013-12-11 08:11:00,-14.0,-21.0,-100.00,West,262,2.0,7.0,71,0.00,,,-99.99,20.000000,,2013-12-11 14:11:00,
2013-12-11 08:42:00,-14.0,-21.0,-100.00,West,262,2.0,7.0,71,0.00,,,-99.99,20.000000,,2013-12-11 14:42:00,
2013-12-11 08:52:00,-14.0,-21.0,-100.00,West,262,2.0,7.0,71,0.00,,,-99.99,20.000000,,2013-12-11 14:52:00,
2013-12-11 09:02:00,-14.0,-21.0,-100.00,West,262,2.0,7.0,71,0.00,,,-99.99,20.000000,,2013-12-11 15:02:00,
2013-12-11 09:11:00,-9.0,-18.0,-100.00,West,264,6.0,8.0,64,0.00,,,0.00,201.000000,,2013-12-11 15:11:00,
2013-12-11 09:43:00,-9.0,-18.0,-100.00,West,264,6.0,8.0,64,0.00,,,0.00,201.000000,,2013-12-11 15:43:00,
2013-12-11 09:54:00,-9.0,-18.0,-100.00,West,264,6.0,8.0,64,0.00,,,0.00,201.000000,,2013-12-11 15:54:00,
2013-12-11 10:04:00,-9.0,-18.0,-100.00,West,264,6.0,8.0,64,0.00,,,0.00,201.000000,,2013-12-11 16:04:00,
2013-12-11 10:11:00,-7.0,-17.0,-100.00,West,265,9.0,12.0,62,0.00,,,0.00,366.000000,,2013-12-11 16:11:00,
2013-12-11 10:43:00,-7.0,-17.0,-100.00,West,265,9.0,12.0,62,0.00,,,0.00,366.000000,,2013-12-11 16:43:00,
2013-12-11 10:53:00,-7.0,-17.0,-100.00,West,265,9.0,12.0,62,0.00,,,0.00,366.000000,,2013-12-11 16:53:00,
2013-12-11 11:02:00,-7.0,-17.0,-100.00,West,265,9.0,12.0,62,0.00,,,0.00,366.000000,,2013-12-11 17:02:00,
2013-12-11 11:11:00,-5.0,-16.0,-100.00,WSW,251,8.0,11.0,59,0.00,,,0.00,474.000000,,2013-12-11 17:11:00,
2013-12-11 11:43:00,-5.0,-16.0,-100.00,WSW,251,8.0,11.0,59,0.00,,,0.00,474.000000,,2013-12-11 17:43:00,
2013-12-11 11:52:00,-5.0,-16.0,-100.00,WSW,251,8.0,11.0,59,0.00,,,0.00,474.000000,,2013-12-11 17:52:00,
2013-12-11 12:02:00,-5.0,-16.0,-100.00,WSW,251,8.0,11.0,59,0.00,,,0.00,474.000000,,2013-12-11 18:02:00,
2013-12-11 12:11:00,-4.0,-15.0,-100.00,WSW,239,9.0,12.0,59,0.00,,,0.00,515.000000,,2013-12-11 18:11:00,
2013-12-11 12:43:00,-4.0,-15.0,-100.00,WSW,239,9.0,12.0,59,0.00,,,0.00,515.000000,,2013-12-11 18:43:00,
2013-12-11 12:52:00,-4.0,-15.0,-100.00,WSW,239,9.0,12.0,59,0.00,,,0.00,515.000000,,2013-12-11 18:52:00,
2013-12-11 13:02:00,-4.0,-15.0,-100.00,WSW,239,9.0,12.0,59,0.00,,,0.00,515.000000,,2013-12-11 19:02:00,
2013-12-11 13:11:00,-3.0,-14.0,-100.00,SW,235,9.0,12.0,57,0.00,,,0.00,488.000000,,2013-12-11 19:11:00,
2013-12-11 13:42:00,-3.0,-14.0,-100.00,SW,235,9.0,12.0,57,0.00,,,0.00,488.000000,,2013-12-11 19:42:00,
2013-12-11 13:52:00,-3.0,-14.0,-100.00,SW,235,9.0,12.0,57,0.00,,,0.00,488.000000,,2013-12-11 19:52:00,
2013-12-11 14:02:00,-3.0,-14.0,-100.00,SW,235,9.0,12.0,57,0.00,,,0.00,488.000000,,2013-12-11 20:02:00,
2013-12-11 14:11:00,-3.0,-14.0,-100.00,WSW,242,10.0,14.0,58,0.00,,,0.00,399.000000,,2013-12-11 20:11:00,
2013-12-11 14:43:00,-3.0,-14.0,-100.00,WSW,242,10.0,14.0,58,0.00,,,0.00,399.000000,,2013-12-11 20:43:00,
2013-12-11 14:52:00,-3.0,-14.0,-100.00,WSW,242,10.0,14.0,58,0.00,,,0.00,399.000000,,2013-12-11 20:52:00,
2013-12-11 15:02:00,-3.0,-14.0,-100.00,WSW,242,10.0,14.0,58,0.00,,,0.00,399.000000,,2013-12-11 21:02:00,
2013-12-11 15:11:00,-2.0,-13.0,-100.00,SW,232,7.0,15.0,57,0.00,,,0.00,263.000000,,2013-12-11 21:11:00,
2013-12-11 15:43:00,-2.0,-13.0,-100.00,SW,232,7.0,15.0,57,0.00,,,0.00,263.000000,,2013-12-11 21:43:00,
2013-12-11 15:53:00,-2.0,-13.0,-100.00,SW,232,7.0,15.0,57,0.00,,,0.00,263.000000,,2013-12-11 21:53:00,
2013-12-11 16:03:00,-2.0,-13.0,-100.00,SW,232,7.0,15.0,57,0.00,,,0.00,263.000000,,2013-12-11 22:03:00,
2013-12-11 16:11:00,-5.0,-14.0,-100.00,SSW,202,4.0,13.0,65,0.00,,,0.00,73.000000,,2013-12-11 22:11:00,
2013-12-11 16:42:00,-5.0,-14.0,-100.00,SSW,202,4.0,13.0,65,0.00,,,0.00,73.000000,,2013-12-11 22:42:00,
2013-12-11 16:53:00,-5.0,-14.0,-100.00,SSW,202,4.0,13.0,65,0.00,,,0.00,73.000000,,2013-12-11 22:53:00,
2013-12-11 17:02:00,-5.0,-14.0,-100.00,SSW,202,4.0,13.0,65,0.00,,,0.00,73.000000,,2013-12-11 23:02:00,
2013-12-11 17:11:00,-7.0,-14.0,-100.00,SSW,200,5.0,8.0,69,0.00,,,0.00,6.000000,,2013-12-11 23:11:00,
2013-12-11 17:43:00,-7.0,-14.0,-100.00,SSW,200,5.0,8.0,69,0.00,,,0.00,6.000000,,2013-12-11 23:43:00,
2013-12-11 17:52:00,-7.0,-14.0,-100.00,SSW,200,5.0,8.0,69,0.00,,,0.00,6.000000,,2013-12-11 23:52:00,
2013-12-11 18:02:00,-7.0,-14.0,-100.00,SSW,200,5.0,8.0,69,0.00,,,0.00,6.000000,,2013-12-12 00:02:00,
2013-12-11 18:11:00,-7.0,-14.0,-100.00,SSW,193,7.0,10.0,69,0.00,,,0.00,0.000000,,2013-12-12 00:11:00,
2013-12-11 18:42:00,-7.0,-14.0,-100.00,SSW,193,7.0,10.0,69,0.00,,,0.00,0.000000,,2013-12-12 00:42:00,
2013-12-11 18:52:00,-7.0,-14.0,-100.00,SSW,193,7.0,10.0,69,0.00,,,0.00,0.000000,,2013-12-12 00:52:00,
2013-12-11 19:02:00,-7.0,-14.0,-100.00,SSW,193,7.0,10.0,69,0.00,,,0.00,0.000000,,2013-12-12 01:02:00,
2013-12-11 19:11:00,-6.0,-13.0,-100.00,South,191,10.0,14.0,69,0.00,,,0.00,0.000000,,2013-12-12 01:11:00,
2013-12-11 19:42:00,-6.0,-13.0,-100.00,South,191,10.0,14.0,69,0.00,,,0.00,0.000000,,2013-12-12 01:42:00,
2013-12-11 19:52:00,-6.0,-13.0,-100.00,South,191,10.0,14.0,69,0.00,,,0.00,0.000000,,2013-12-12 01:52:00,
2013-12-11 20:01:00,-6.0,-13.0,-100.00,South,191,10.0,14.0,69,0.00,,,0.00,0.000000,,2013-12-12 02:01:00,
2013-12-11 20:11:00,-4.0,-11.0,-100.00,South,182,8.0,13.0,70,0.00,,,0.00,0.000000,,2013-12-12 02:11:00,
2013-12-11 20:52:00,-4.0,-11.0,-100.00,South,182,8.0,13.0,70,0.00,,,0.00,0.000000,,2013-12-12 02:52:00,
2013-12-11 21:02:00,-4.0,-11.0,-100.00,South,182,8.0,13.0,70,0.00,,,0.00,0.000000,,2013-12-12 03:02:00,
2013-12-11 21:11:00,-4.0,-11.0,-100.00,South,180,9.0,12.0,71,0.00,,,0.00,0.000000,,2013-12-12 03:11:00,
2013-12-11 21:44:00,-4.0,-11.0,-100.00,South,180,9.0,12.0,71,0.00,,,0.00,0.000000,,2013-12-12 03:44:00,
2013-12-11 21:53:00,-4.0,-11.0,-100.00,South,180,9.0,12.0,71,0.00,,,0.00,0.000000,,2013-12-12 03:53:00,
2013-12-11 22:03:00,-4.0,-11.0,-100.00,South,180,9.0,12.0,71,0.00,,,0.00,0.000000,,2013-12-12 04:03:00,
2013-12-11 22:11:00,-2.0,-9.0,-100.00,South,172,11.0,15.0,71,0.00,,,0.00,0.000000,,2013-12-12 04:11:00,
2013-12-11 22:43:00,-2.0,-9.0,-100.00,South,172,11.0,15.0,71,0.00,,,0.00,0.000000,,2013-12-12 04:43:00,
2013-12-11 22:53:00,-2.0,-9.0,-100.00,South,172,11.0,15.0,71,0.00,,,0.00,0.000000,,2013-12-12 04:53:00,
2013-12-11 23:02:00,-2.0,-9.0,-100.00,South,172,11.0,15.0,71,0.00,,,0.00,0.000000,,2013-12-12 05:02:00,
2013-12-11 23:11:00,0.0,-7.0,-100.00,South,170,10.0,17.0,73,0.00,,,0.00,0.000000,,2013-12-12 05:11:00,
2013-12-11 23:43:00,0.0,-7.0,-100.00,South,170,10.0,17.0,73,0.00,,,0.00,0.000000,,2013-12-12 05:43:00,
2013-12-11 23:53:00,0.0,-7.0,-100.00,South,170,10.0,17.0,73,0.00,,,0.00,0.000000,,2013-12-12 05:53:00,